Atascadero, CA

1:51 AM PDT on October 01, 2014 (GMT -0700)
Santa Maria Public Airport / Captain G. Allan Hancock Field | Change Station
CLOSE
Current Station
Airport
Location: Santa Maria,
Elevation: 240 ft
Nearby Weather Stations
Active Advisory: Special Statement

Elev 240 ft 34.90 °N, 120.45 °W | Updated 1 hour ago

Clear
Clear
60 °F
Feels Like 60 °F
N
0
Wind Variable Wind from North

Today
High -- | Low -- °F
--% Chance of Precip.
Yesterday
High -- | Low -- °F
Precip. -- in
6:57 AM 6:46 PM
Waxing Crescent, 45% visible
Pressure 29.95 in
Visibility 5.0 miles
Clouds Clear
Dew Point 56 °F
Humidity 86%
Rainfall 0.00 in
Snow Depth Not available.
UV 0 out of 12
Pollen 5.60 out of 12
Air Quality Not available.
Flu Activity Not available.
METAR KSMX 300751Z AUTO 00000KT 5SM BR CLR 16/13 A2995 RMK AO2 SLP142 T01560133 402780122

More Conditions Fewer Conditions

Pressure 29.95 in
Visibility 5.0 miles
Clouds Clear
Dew Point 56 °F
Humidity 86%
Rainfall 0.00 in
Snow Depth Not available.
UV 0 out of 12
Pollen 5.60 out of 12
Air Quality Not available.
Flu Activity Not available.
METAR KSMX 300751Z AUTO 00000KT 5SM BR CLR 16/13 A2995 RMK AO2 SLP142 T01560133 402780122

More Conditions Fewer Conditions

10-Day Weather Forecast

Almanac

Astronomy

Oct. 01, 2014 Rise Set
Actual Time 6:57 AM PDT 6:46 PM PDT
Civil Twilight 6:32 AM PDT 7:11 PM PDT
Nautical Twilight 6:02 AM PDT 7:41 PM PDT
Astronomical Twilight 5:33 AM PDT 8:10 PM PDT
Moon 1:54 PM PDT No Moon Set
Length of Visible Light 12h 39m
Length of Day
11h 48m
Tomorrow will be 2m 13s shorter.
Waxing Crescent, 45% of the Moon is Illuminated
Today
Waxing Crescent
Oct 1
First Quarter
Oct 8
Full
Oct 15
Last Quarter
Oct 23
New

Today's Extremes

State Highs State Lows

Community

WunderPhotos

Upload Photos

1,757,902 photos uploaded!

Nearby

Snow Depth

Station Depth Elevation
Poison Flat 0 in 7900 ft
Independence Lake 0 in 8450 ft
Leavitt Meadows 1 in 7200 ft
Burnside Lake 1 in 8139 ft
Forestdale Creek 0 in 8029 ft

Earthquake Activity

City Distance Mag. Time & Date
Shandon, California 28 miles 2.9 5:34 PM PDT
2014-09-30
East Foothills, California 150 miles 2.6 3:34 PM PDT
2014-09-30
South Dos Palos, California 80 miles 2.7 3:08 PM PDT
2014-09-30
South Dos Palos, California 80 miles 2.5 9:18 PM PDT
2014-09-29
Minimum magnitude displayed is 2.5.

Coastal Water Temperatures

Place Temperature
No Stations Reporting

Nearby Weather Stations